sensor_id;sensor_type;location;lat;lon;timestamp;temperature;humidity
54960;DHT22;40860;51.710;8.736;2022-10-03T00:00:23;10.20;99.30
54960;DHT22;40860;51.710;8.736;2022-10-03T00:04:50;10.10;99.50
54960;DHT22;40860;51.710;8.736;2022-10-03T00:09:32;10.10;99.60
54960;DHT22;40860;51.710;8.736;2022-10-03T00:13:42;10.10;99.60
54960;DHT22;40860;51.710;8.736;2022-10-03T00:17:56;10.10;99.60
54960;DHT22;40860;51.710;8.736;2022-10-03T00:22:11;10.10;99.60
54960;DHT22;40860;51.710;8.736;2022-10-03T00:26:25;10.10;99.70
54960;DHT22;40860;51.710;8.736;2022-10-03T00:30:48;10.10;99.80
54960;DHT22;40860;51.710;8.736;2022-10-03T00:35:04;10.10;99.90
54960;DHT22;40860;51.710;8.736;2022-10-03T00:39:27;10.10;99.90
54960;DHT22;40860;51.710;8.736;2022-10-03T00:44:02;10.00;99.90
54960;DHT22;40860;51.710;8.736;2022-10-03T00:53:11;10.00;99.90
54960;DHT22;40860;51.710;8.736;2022-10-03T00:57:40;10.00;99.90
54960;DHT22;40860;51.710;8.736;2022-10-03T01:01:51;10.10;99.90
54960;DHT22;40860;51.710;8.736;2022-10-03T01:06:04;10.10;99.90
54960;DHT22;40860;51.710;8.736;2022-10-03T01:10:14;10.10;99.90
54960;DHT22;40860;51.710;8.736;2022-10-03T01:14:32;10.20;99.90
54960;DHT22;40860;51.710;8.736;2022-10-03T01:18:53;10.30;99.90
54960;DHT22;40860;51.710;8.736;2022-10-03T01:23:16;10.30;99.90
54960;DHT22;40860;51.710;8.736;2022-10-03T01:27:33;10.40;99.90
54960;DHT22;40860;51.710;8.736;2022-10-03T01:32:04;10.40;99.90
54960;DHT22;40860;51.710;8.736;2022-10-03T01:36:13;10.50;99.90
54960;DHT22;40860;51.710;8.736;2022-10-03T01:40:26;10.50;99.90
54960;DHT22;40860;51.710;8.736;2022-10-03T01:44:39;10.50;99.90
54960;DHT22;40860;51.710;8.736;2022-10-03T01:48:52;10.50;99.90
54960;DHT22;40860;51.710;8.736;2022-10-03T01:53:05;10.60;99.90
54960;DHT22;40860;51.710;8.736;2022-10-03T01:57:16;10.60;99.90
54960;DHT22;40860;51.710;8.736;2022-10-03T02:01:29;10.60;99.90
54960;DHT22;40860;51.710;8.736;2022-10-03T02:05:39;10.60;99.90
54960;DHT22;40860;51.710;8.736;2022-10-03T02:09:51;10.60;99.90
54960;DHT22;40860;51.710;8.736;2022-10-03T02:13:59;10.60;99.90
54960;DHT22;40860;51.710;8.736;2022-10-03T02:18:13;10.50;99.90
54960;DHT22;40860;51.710;8.736;2022-10-03T02:22:30;10.50;99.90
54960;DHT22;40860;51.710;8.736;2022-10-03T02:27:06;10.50;99.90
54960;DHT22;40860;51.710;8.736;2022-10-03T02:31:50;10.50;99.90
54960;DHT22;40860;51.710;8.736;2022-10-03T02:36:29;10.50;99.90
54960;DHT22;40860;51.710;8.736;2022-10-03T02:40:48;10.50;99.90
54960;DHT22;40860;51.710;8.736;2022-10-03T02:54:54;10.40;99.90
54960;DHT22;40860;51.710;8.736;2022-10-03T02:59:22;10.40;99.90
54960;DHT22;40860;51.710;8.736;2022-10-03T03:04:05;10.50;99.90
54960;DHT22;40860;51.710;8.736;2022-10-03T03:08:27;10.40;99.90
54960;DHT22;40860;51.710;8.736;2022-10-03T03:12:54;10.40;99.90
54960;DHT22;40860;51.710;8.736;2022-10-03T03:17:14;10.40;99.90
54960;DHT22;40860;51.710;8.736;2022-10-03T03:21:26;10.40;99.90
54960;DHT22;40860;51.710;8.736;2022-10-03T03:25:40;10.30;99.90
54960;DHT22;40860;51.710;8.736;2022-10-03T03:29:53;10.40;99.90
54960;DHT22;40860;51.710;8.736;2022-10-03T03:34:12;10.40;99.90
54960;DHT22;40860;51.710;8.736;2022-10-03T03:38:25;10.40;99.90
54960;DHT22;40860;51.710;8.736;2022-10-03T03:42:47;10.40;99.90
54960;DHT22;40860;51.710;8.736;2022-10-03T03:47:24;10.40;99.90
54960;DHT22;40860;51.710;8.736;2022-10-03T03:51:41;10.40;99.90
54960;DHT22;40860;51.710;8.736;2022-10-03T03:56:00;10.40;99.90
54960;DHT22;40860;51.710;8.736;2022-10-03T04:00:12;10.40;99.90
54960;DHT22;40860;51.710;8.736;2022-10-03T04:04:42;10.40;99.90
54960;DHT22;40860;51.710;8.736;2022-10-03T04:09:08;10.40;99.90
54960;DHT22;40860;51.710;8.736;2022-10-03T04:13:37;10.40;99.90
54960;DHT22;40860;51.710;8.736;2022-10-03T04:18:01;10.40;99.90
54960;DHT22;40860;51.710;8.736;2022-10-03T04:22:31;10.40;99.90
54960;DHT22;40860;51.710;8.736;2022-10-03T04:26:56;10.40;99.90
54960;DHT22;40860;51.710;8.736;2022-10-03T04:31:18;10.40;99.90
54960;DHT22;40860;51.710;8.736;2022-10-03T04:35:40;10.40;99.90
54960;DHT22;40860;51.710;8.736;2022-10-03T04:39:51;10.40;99.90
54960;DHT22;40860;51.710;8.736;2022-10-03T04:44:04;10.40;99.90
54960;DHT22;40860;51.710;8.736;2022-10-03T04:48:15;10.30;99.90
54960;DHT22;40860;51.710;8.736;2022-10-03T04:52:26;10.30;99.90
54960;DHT22;40860;51.710;8.736;2022-10-03T04:56:39;10.30;99.90
54960;DHT22;40860;51.710;8.736;2022-10-03T05:00:55;10.30;99.90
54960;DHT22;40860;51.710;8.736;2022-10-03T05:05:22;10.40;99.90
54960;DHT22;40860;51.710;8.736;2022-10-03T05:09:35;10.40;99.90
54960;DHT22;40860;51.710;8.736;2022-10-03T05:13:49;10.40;99.90
54960;DHT22;40860;51.710;8.736;2022-10-03T05:18:01;10.40;99.90
54960;DHT22;40860;51.710;8.736;2022-10-03T05:22:10;10.40;99.90
54960;DHT22;40860;51.710;8.736;2022-10-03T05:26:23;10.40;99.90
54960;DHT22;40860;51.710;8.736;2022-10-03T05:30:51;10.40;99.90
54960;DHT22;40860;51.710;8.736;2022-10-03T05:35:18;10.50;99.90
54960;DHT22;40860;51.710;8.736;2022-10-03T05:39:27;10.40;99.90
54960;DHT22;40860;51.710;8.736;2022-10-03T05:43:44;10.50;99.90
54960;DHT22;40860;51.710;8.736;2022-10-03T05:47:51;10.50;99.90
54960;DHT22;40860;51.710;8.736;2022-10-03T05:52:09;10.50;99.90
54960;DHT22;40860;51.710;8.736;2022-10-03T05:56:22;10.50;99.90
54960;DHT22;40860;51.710;8.736;2022-10-03T06:00:40;10.50;99.90
54960;DHT22;40860;51.710;8.736;2022-10-03T06:05:01;10.40;99.90
54960;DHT22;40860;51.710;8.736;2022-10-03T06:09:34;10.50;99.90
54960;DHT22;40860;51.710;8.736;2022-10-03T06:14:01;10.50;99.90
54960;DHT22;40860;51.710;8.736;2022-10-03T06:18:21;10.50;99.90
54960;DHT22;40860;51.710;8.736;2022-10-03T06:27:40;10.50;99.90
54960;DHT22;40860;51.710;8.736;2022-10-03T06:32:16;10.50;99.90
54960;DHT22;40860;51.710;8.736;2022-10-03T06:36:53;10.50;99.90
54960;DHT22;40860;51.710;8.736;2022-10-03T06:50:52;10.60;99.90
54960;DHT22;40860;51.710;8.736;2022-10-03T06:59:53;10.60;99.90
54960;DHT22;40860;51.710;8.736;2022-10-03T07:04:07;10.60;99.90
54960;DHT22;40860;51.710;8.736;2022-10-03T07:13:20;10.60;99.90
54960;DHT22;40860;51.710;8.736;2022-10-03T07:17:39;10.70;99.90
54960;DHT22;40860;51.710;8.736;2022-10-03T07:22:28;10.70;99.90
54960;DHT22;40860;51.710;8.736;2022-10-03T07:27:05;10.70;99.90
54960;DHT22;40860;51.710;8.736;2022-10-03T07:31:21;10.70;99.90
54960;DHT22;40860;51.710;8.736;2022-10-03T07:35:44;10.70;99.90
54960;DHT22;40860;51.710;8.736;2022-10-03T07:40:24;10.70;99.90
54960;DHT22;40860;51.710;8.736;2022-10-03T07:49:34;10.80;99.90
54960;DHT22;40860;51.710;8.736;2022-10-03T07:54:17;10.90;99.90
54960;DHT22;40860;51.710;8.736;2022-10-03T07:58:31;10.90;99.90
54960;DHT22;40860;51.710;8.736;2022-10-03T08:07:39;10.90;99.90
54960;DHT22;40860;51.710;8.736;2022-10-03T08:16:37;11.00;99.90
54960;DHT22;40860;51.710;8.736;2022-10-03T08:20:52;11.10;99.90
54960;DHT22;40860;51.710;8.736;2022-10-03T08:25:21;11.10;99.90
54960;DHT22;40860;51.710;8.736;2022-10-03T08:29:48;11.20;99.90
54960;DHT22;40860;51.710;8.736;2022-10-03T08:38:51;11.30;99.90
54960;DHT22;40860;51.710;8.736;2022-10-03T08:43:36;11.40;99.90
54960;DHT22;40860;51.710;8.736;2022-10-03T08:48:05;11.50;99.90
54960;DHT22;40860;51.710;8.736;2022-10-03T08:52:26;11.50;99.90
54960;DHT22;40860;51.710;8.736;2022-10-03T08:56:47;11.60;99.90
54960;DHT22;40860;51.710;8.736;2022-10-03T09:01:25;11.60;99.90
54960;DHT22;40860;51.710;8.736;2022-10-03T09:05:53;11.70;99.90
54960;DHT22;40860;51.710;8.736;2022-10-03T09:10:36;11.70;99.90
54960;DHT22;40860;51.710;8.736;2022-10-03T09:15:06;11.70;99.90
54960;DHT22;40860;51.710;8.736;2022-10-03T09:28:57;12.00;99.90
54960;DHT22;40860;51.710;8.736;2022-10-03T09:38:20;12.40;99.90
54960;DHT22;40860;51.710;8.736;2022-10-03T09:42:59;12.50;99.90
54960;DHT22;40860;51.710;8.736;2022-10-03T09:51:46;12.80;99.90
54960;DHT22;40860;51.710;8.736;2022-10-03T10:00:27;13.30;99.40
54960;DHT22;40860;51.710;8.736;2022-10-03T10:05:05;13.30;99.30
54960;DHT22;40860;51.710;8.736;2022-10-03T10:09:38;13.40;99.00
54960;DHT22;40860;51.710;8.736;2022-10-03T10:19:00;13.70;98.30
54960;DHT22;40860;51.710;8.736;2022-10-03T10:33:16;14.20;96.90
54960;DHT22;40860;51.710;8.736;2022-10-03T10:47:17;14.40;96.30
54960;DHT22;40860;51.710;8.736;2022-10-03T10:52:01;14.50;96.00
54960;DHT22;40860;51.710;8.736;2022-10-03T10:56:26;14.80;96.10
54960;DHT22;40860;51.710;8.736;2022-10-03T11:01:19;14.90;95.40
54960;DHT22;40860;51.710;8.736;2022-10-03T11:10:29;15.20;95.00
54960;DHT22;40860;51.710;8.736;2022-10-03T11:29:49;15.30;94.50
54960;DHT22;40860;51.710;8.736;2022-10-03T11:38:50;15.60;93.40
54960;DHT22;40860;51.710;8.736;2022-10-03T11:43:05;15.60;93.20
54960;DHT22;40860;51.710;8.736;2022-10-03T11:47:41;15.60;93.40
54960;DHT22;40860;51.710;8.736;2022-10-03T11:51:55;15.80;93.50
54960;DHT22;40860;51.710;8.736;2022-10-03T11:56:19;15.90;92.50
54960;DHT22;40860;51.710;8.736;2022-10-03T12:00:32;15.90;92.40
54960;DHT22;40860;51.710;8.736;2022-10-03T12:04:45;15.80;92.40
54960;DHT22;40860;51.710;8.736;2022-10-03T12:08:56;15.70;92.20
54960;DHT22;40860;51.710;8.736;2022-10-03T12:13:07;15.70;92.70
54960;DHT22;40860;51.710;8.736;2022-10-03T12:17:12;15.80;92.80
54960;DHT22;40860;51.710;8.736;2022-10-03T12:21:21;16.10;92.10
54960;DHT22;40860;51.710;8.736;2022-10-03T12:25:26;16.20;91.90
54960;DHT22;40860;51.710;8.736;2022-10-03T12:29:35;16.10;91.60
54960;DHT22;40860;51.710;8.736;2022-10-03T12:33:47;15.90;91.60
54960;DHT22;40860;51.710;8.736;2022-10-03T12:38:01;15.90;91.60
54960;DHT22;40860;51.710;8.736;2022-10-03T12:42:23;15.90;91.40
54960;DHT22;40860;51.710;8.736;2022-10-03T12:46:38;15.70;91.20
54960;DHT22;40860;51.710;8.736;2022-10-03T12:50:46;15.70;91.00
54960;DHT22;40860;51.710;8.736;2022-10-03T12:55:01;15.80;91.00
54960;DHT22;40860;51.710;8.736;2022-10-03T12:59:22;15.80;90.40
54960;DHT22;40860;51.710;8.736;2022-10-03T13:03:38;15.80;90.50
54960;DHT22;40860;51.710;8.736;2022-10-03T13:07:50;15.90;90.20
54960;DHT22;40860;51.710;8.736;2022-10-03T13:12:01;15.90;90.00
54960;DHT22;40860;51.710;8.736;2022-10-03T13:16:17;16.00;88.70
54960;DHT22;40860;51.710;8.736;2022-10-03T13:20:27;16.10;87.90
54960;DHT22;40860;51.710;8.736;2022-10-03T13:24:35;16.30;87.30
54960;DHT22;40860;51.710;8.736;2022-10-03T13:29:00;16.50;86.30
54960;DHT22;40860;51.710;8.736;2022-10-03T13:33:14;16.40;85.60
54960;DHT22;40860;51.710;8.736;2022-10-03T13:37:27;16.30;86.60
54960;DHT22;40860;51.710;8.736;2022-10-03T13:46:04;16.20;86.00
54960;DHT22;40860;51.710;8.736;2022-10-03T13:50:15;16.10;86.10
54960;DHT22;40860;51.710;8.736;2022-10-03T13:54:36;16.00;86.10
54960;DHT22;40860;51.710;8.736;2022-10-03T13:58:47;16.10;86.40
54960;DHT22;40860;51.710;8.736;2022-10-03T14:03:07;16.00;86.30
54960;DHT22;40860;51.710;8.736;2022-10-03T14:07:18;16.00;85.60
54960;DHT22;40860;51.710;8.736;2022-10-03T14:11:33;16.00;85.90
54960;DHT22;40860;51.710;8.736;2022-10-03T14:15:47;15.90;85.40
54960;DHT22;40860;51.710;8.736;2022-10-03T14:20:08;15.80;85.60
54960;DHT22;40860;51.710;8.736;2022-10-03T14:24:23;15.70;85.80
54960;DHT22;40860;51.710;8.736;2022-10-03T14:28:36;15.80;86.60
54960;DHT22;40860;51.710;8.736;2022-10-03T14:32:49;16.00;85.80
54960;DHT22;40860;51.710;8.736;2022-10-03T14:36:59;16.00;85.10
54960;DHT22;40860;51.710;8.736;2022-10-03T14:41:13;16.00;84.70
54960;DHT22;40860;51.710;8.736;2022-10-03T14:45:24;15.90;85.70
54960;DHT22;40860;51.710;8.736;2022-10-03T14:49:31;15.90;85.40
54960;DHT22;40860;51.710;8.736;2022-10-03T14:53:59;15.80;86.00
54960;DHT22;40860;51.710;8.736;2022-10-03T14:58:15;15.60;86.30
54960;DHT22;40860;51.710;8.736;2022-10-03T15:02:26;15.60;86.80
54960;DHT22;40860;51.710;8.736;2022-10-03T15:06:35;15.50;87.80
54960;DHT22;40860;51.710;8.736;2022-10-03T15:10:52;15.40;89.40
54960;DHT22;40860;51.710;8.736;2022-10-03T15:15:04;15.30;89.30
54960;DHT22;40860;51.710;8.736;2022-10-03T15:19:16;15.30;88.90
54960;DHT22;40860;51.710;8.736;2022-10-03T15:23:24;15.30;89.30
54960;DHT22;40860;51.710;8.736;2022-10-03T15:27:28;15.30;89.40
54960;DHT22;40860;51.710;8.736;2022-10-03T15:31:33;15.20;89.50
54960;DHT22;40860;51.710;8.736;2022-10-03T15:35:40;15.10;89.40
54960;DHT22;40860;51.710;8.736;2022-10-03T15:39:50;15.20;89.70
54960;DHT22;40860;51.710;8.736;2022-10-03T15:43:58;15.10;89.80
54960;DHT22;40860;51.710;8.736;2022-10-03T15:48:10;15.10;89.70
54960;DHT22;40860;51.710;8.736;2022-10-03T15:52:19;15.10;89.90
54960;DHT22;40860;51.710;8.736;2022-10-03T15:56:25;15.00;90.20
54960;DHT22;40860;51.710;8.736;2022-10-03T16:00:32;15.00;90.50
54960;DHT22;40860;51.710;8.736;2022-10-03T16:04:36;15.00;90.30
54960;DHT22;40860;51.710;8.736;2022-10-03T16:08:53;15.00;90.60
54960;DHT22;40860;51.710;8.736;2022-10-03T16:13:01;14.90;90.50
54960;DHT22;40860;51.710;8.736;2022-10-03T16:17:13;14.90;90.50
54960;DHT22;40860;51.710;8.736;2022-10-03T16:21:31;14.80;90.80
54960;DHT22;40860;51.710;8.736;2022-10-03T16:25:41;14.70;91.60
54960;DHT22;40860;51.710;8.736;2022-10-03T16:29:52;14.60;91.60
54960;DHT22;40860;51.710;8.736;2022-10-03T16:34:02;14.40;92.30
54960;DHT22;40860;51.710;8.736;2022-10-03T16:38:14;14.30;92.50
54960;DHT22;40860;51.710;8.736;2022-10-03T16:42:22;14.20;92.90
54960;DHT22;40860;51.710;8.736;2022-10-03T16:46:30;14.10;93.20
54960;DHT22;40860;51.710;8.736;2022-10-03T16:50:35;14.00;93.40
54960;DHT22;40860;51.710;8.736;2022-10-03T16:54:40;13.90;93.60
54960;DHT22;40860;51.710;8.736;2022-10-03T16:58:49;13.80;93.80
54960;DHT22;40860;51.710;8.736;2022-10-03T17:02:54;13.70;94.10
54960;DHT22;40860;51.710;8.736;2022-10-03T17:06:59;13.60;94.20
54960;DHT22;40860;51.710;8.736;2022-10-03T17:11:05;13.40;94.50
54960;DHT22;40860;51.710;8.736;2022-10-03T17:15:18;13.30;94.80
54960;DHT22;40860;51.710;8.736;2022-10-03T17:19:29;13.20;94.90
54960;DHT22;40860;51.710;8.736;2022-10-03T17:23:38;13.00;95.10
54960;DHT22;40860;51.710;8.736;2022-10-03T17:27:46;12.90;95.40
54960;DHT22;40860;51.710;8.736;2022-10-03T17:31:57;12.80;95.50
54960;DHT22;40860;51.710;8.736;2022-10-03T17:40:49;12.70;95.70
54960;DHT22;40860;51.710;8.736;2022-10-03T17:44:58;12.60;95.90
54960;DHT22;40860;51.710;8.736;2022-10-03T17:49:19;12.50;96.10
54960;DHT22;40860;51.710;8.736;2022-10-03T17:53:26;12.40;96.30
54960;DHT22;40860;51.710;8.736;2022-10-03T17:57:32;12.30;96.40
54960;DHT22;40860;51.710;8.736;2022-10-03T18:01:41;12.30;96.50
54960;DHT22;40860;51.710;8.736;2022-10-03T18:05:49;12.20;96.60
54960;DHT22;40860;51.710;8.736;2022-10-03T18:09:54;12.10;96.70
54960;DHT22;40860;51.710;8.736;2022-10-03T18:14:04;12.00;96.80
54960;DHT22;40860;51.710;8.736;2022-10-03T18:18:47;12.00;97.00
54960;DHT22;40860;51.710;8.736;2022-10-03T18:22:59;11.80;97.10
54960;DHT22;40860;51.710;8.736;2022-10-03T18:27:15;11.70;97.30
54960;DHT22;40860;51.710;8.736;2022-10-03T18:31:27;11.70;97.40
54960;DHT22;40860;51.710;8.736;2022-10-03T18:35:35;11.60;97.60
54960;DHT22;40860;51.710;8.736;2022-10-03T18:39:42;11.50;97.60
54960;DHT22;40860;51.710;8.736;2022-10-03T18:43:50;11.50;97.80
54960;DHT22;40860;51.710;8.736;2022-10-03T18:48:05;11.50;97.80
54960;DHT22;40860;51.710;8.736;2022-10-03T18:52:13;11.40;97.80
54960;DHT22;40860;51.710;8.736;2022-10-03T18:56:23;11.30;98.00
54960;DHT22;40860;51.710;8.736;2022-10-03T19:00:28;11.20;98.10
54960;DHT22;40860;51.710;8.736;2022-10-03T19:04:36;11.20;98.30
54960;DHT22;40860;51.710;8.736;2022-10-03T19:08:44;11.10;98.30
54960;DHT22;40860;51.710;8.736;2022-10-03T19:12:57;11.00;98.30
54960;DHT22;40860;51.710;8.736;2022-10-03T19:17:22;10.90;98.40
54960;DHT22;40860;51.710;8.736;2022-10-03T19:21:34;10.90;98.50
54960;DHT22;40860;51.710;8.736;2022-10-03T19:25:41;10.80;98.60
54960;DHT22;40860;51.710;8.736;2022-10-03T19:29:48;10.80;98.60
54960;DHT22;40860;51.710;8.736;2022-10-03T19:33:57;10.70;98.60
54960;DHT22;40860;51.710;8.736;2022-10-03T19:38:05;10.70;98.80
54960;DHT22;40860;51.710;8.736;2022-10-03T19:42:24;10.60;98.80
54960;DHT22;40860;51.710;8.736;2022-10-03T19:46:46;10.60;98.70
54960;DHT22;40860;51.710;8.736;2022-10-03T19:50:50;10.60;98.70
54960;DHT22;40860;51.710;8.736;2022-10-03T19:55:01;10.60;98.80
54960;DHT22;40860;51.710;8.736;2022-10-03T19:59:10;10.60;98.70
54960;DHT22;40860;51.710;8.736;2022-10-03T20:03:18;10.50;98.70
54960;DHT22;40860;51.710;8.736;2022-10-03T20:07:32;10.40;98.80
54960;DHT22;40860;51.710;8.736;2022-10-03T20:11:40;10.30;98.90
54960;DHT22;40860;51.710;8.736;2022-10-03T20:15:46;10.30;99.00
54960;DHT22;40860;51.710;8.736;2022-10-03T20:19:53;10.20;99.30
54960;DHT22;40860;51.710;8.736;2022-10-03T20:23:58;10.30;99.30
54960;DHT22;40860;51.710;8.736;2022-10-03T20:28:03;10.20;99.30
54960;DHT22;40860;51.710;8.736;2022-10-03T20:32:13;10.20;99.40
54960;DHT22;40860;51.710;8.736;2022-10-03T20:36:20;10.20;99.30
54960;DHT22;40860;51.710;8.736;2022-10-03T20:40:28;10.20;99.20
54960;DHT22;40860;51.710;8.736;2022-10-03T20:44:50;10.10;99.20
54960;DHT22;40860;51.710;8.736;2022-10-03T20:49:12;10.20;99.30
54960;DHT22;40860;51.710;8.736;2022-10-03T20:53:22;10.10;99.50
54960;DHT22;40860;51.710;8.736;2022-10-03T20:57:29;10.20;99.50
54960;DHT22;40860;51.710;8.736;2022-10-03T21:01:34;10.20;99.70
54960;DHT22;40860;51.710;8.736;2022-10-03T21:05:42;10.20;99.30
54960;DHT22;40860;51.710;8.736;2022-10-03T21:09:48;10.20;99.40
54960;DHT22;40860;51.710;8.736;2022-10-03T21:13:55;10.20;99.20
54960;DHT22;40860;51.710;8.736;2022-10-03T21:18:00;10.10;99.30
54960;DHT22;40860;51.710;8.736;2022-10-03T21:22:06;10.00;99.30
54960;DHT22;40860;51.710;8.736;2022-10-03T21:26:19;10.00;99.30
54960;DHT22;40860;51.710;8.736;2022-10-03T21:30:44;9.90;99.50
54960;DHT22;40860;51.710;8.736;2022-10-03T21:34:57;9.90;99.30
54960;DHT22;40860;51.710;8.736;2022-10-03T21:39:14;9.80;99.30
54960;DHT22;40860;51.710;8.736;2022-10-03T21:43:29;9.70;99.40
54960;DHT22;40860;51.710;8.736;2022-10-03T21:47:40;9.60;99.60
54960;DHT22;40860;51.710;8.736;2022-10-03T21:52:04;9.60;99.70
54960;DHT22;40860;51.710;8.736;2022-10-03T21:56:40;9.50;99.70
54960;DHT22;40860;51.710;8.736;2022-10-03T22:00:59;9.50;99.60
54960;DHT22;40860;51.710;8.736;2022-10-03T22:05:13;9.50;99.60
54960;DHT22;40860;51.710;8.736;2022-10-03T22:09:18;9.40;99.70
54960;DHT22;40860;51.710;8.736;2022-10-03T22:13:23;9.40;99.80
54960;DHT22;40860;51.710;8.736;2022-10-03T22:17:36;9.30;99.50
54960;DHT22;40860;51.710;8.736;2022-10-03T22:21:53;9.30;99.60
54960;DHT22;40860;51.710;8.736;2022-10-03T22:26:04;9.20;99.70
54960;DHT22;40860;51.710;8.736;2022-10-03T22:30:11;9.10;99.70
54960;DHT22;40860;51.710;8.736;2022-10-03T22:34:26;9.10;99.90
54960;DHT22;40860;51.710;8.736;2022-10-03T22:38:34;9.00;99.90
54960;DHT22;40860;51.710;8.736;2022-10-03T22:42:40;9.00;99.90
54960;DHT22;40860;51.710;8.736;2022-10-03T22:46:48;8.90;99.90
54960;DHT22;40860;51.710;8.736;2022-10-03T22:50:53;8.80;99.80
54960;DHT22;40860;51.710;8.736;2022-10-03T22:54:58;8.80;99.90
54960;DHT22;40860;51.710;8.736;2022-10-03T22:59:05;8.70;99.90
54960;DHT22;40860;51.710;8.736;2022-10-03T23:03:10;8.60;99.90
54960;DHT22;40860;51.710;8.736;2022-10-03T23:07:33;8.60;99.90
54960;DHT22;40860;51.710;8.736;2022-10-03T23:11:39;8.60;99.90
54960;DHT22;40860;51.710;8.736;2022-10-03T23:15:46;8.60;99.90
54960;DHT22;40860;51.710;8.736;2022-10-03T23:19:57;8.50;99.90
54960;DHT22;40860;51.710;8.736;2022-10-03T23:24:10;8.50;99.90
54960;DHT22;40860;51.710;8.736;2022-10-03T23:28:19;8.50;99.90
54960;DHT22;40860;51.710;8.736;2022-10-03T23:32:50;8.40;99.90
54960;DHT22;40860;51.710;8.736;2022-10-03T23:36:58;8.30;99.90
54960;DHT22;40860;51.710;8.736;2022-10-03T23:41:04;8.30;99.90
54960;DHT22;40860;51.710;8.736;2022-10-03T23:45:14;8.30;99.90
54960;DHT22;40860;51.710;8.736;2022-10-03T23:49:18;8.30;99.90
54960;DHT22;40860;51.710;8.736;2022-10-03T23:53:29;8.30;99.90
54960;DHT22;40860;51.710;8.736;2022-10-03T23:57:38;8.30;99.90
